Terminal Aerodrome Forecast
Issued by NWS

Home | Current Version | Previous Version | Graphics & Text | Print | Product List | Glossary On
Versions: 1 2 3 4 5 6 7 8 9 10 11 12 13 14 15 16
124
FTUS43 KMPX 251724
TAFAXN
TAF
KAXN 251724Z 2518/2618 01014KT P6SM BKN015 OVC035
     FM252200 01014KT P6SM VCSH OVC045
     FM260100 01014G23KT P6SM -SHRA OVC020
     FM260300 02015G23KT 6SM -RA BR OVC008
     FM261300 01015G23KT 3SM -RASN BR OVC008=

USA.gov is the U.S. government's official web portal to all federal, state and local government web resources and services.